Time;durP1;ratioP1;P1;durP2;ratioP2;P2;SDS_P1;SDS_P2;PMS_P1;PMS_P2;Temp;Humidity;BMP_temperature;BMP_pressure;BME280_temperature;BME280_humidity;BME280_pressure;Samples;Min_cycle;Max_cycle;Signal;HPM_P1;HPM_P2
2022/07/21 00:01:00;;;;;;;10.13;6.83;;;;;;;17.60;77.82;99371.97;4020885;87;22567;-82
2022/07/21 00:07:03;;;;;;;14.90;7.87;;;;;;;17.47;78.56;99381.39;4013201;87;21088;-83
2022/07/21 00:19:25;;;;;;;14.05;7.87;;;;;;;17.50;79.07;99383.34;4020192;87;21070;-84
2022/07/21 00:25:31;;;;;;;11.00;6.95;;;;;;;17.51;79.36;99382.75;4077616;86;20993;-83
2022/07/21 00:31:32;;;;;;;13.62;7.37;;;;;;;17.40;79.58;99386.95;4082920;86;21097;-83
2022/07/21 00:37:49;;;;;;;12.78;7.15;;;;;;;17.28;79.91;99384.72;4077649;86;21060;-84
2022/07/21 00:43:51;;;;;;;10.30;7.15;;;;;;;17.17;80.09;99376.52;4081752;86;20973;-82
2022/07/21 00:49:59;;;;;;;12.88;7.28;;;;;;;17.04;80.44;99376.03;4078778;86;21097;-84
2022/07/21 00:56:04;;;;;;;13.48;6.37;;;;;;;17.03;80.80;99381.39;4078605;86;21472;-83
2022/07/21 01:02:08;;;;;;;10.10;6.03;;;;;;;17.13;81.35;99389.59;4080002;86;21085;-83
2022/07/21 01:08:16;;;;;;;10.28;6.15;;;;;;;17.34;81.27;99391.37;4086790;86;21096;-83
2022/07/21 01:14:25;;;;;;;10.45;6.42;;;;;;;17.32;81.17;99394.38;4048968;85;21572;-83
2022/07/21 01:20:29;;;;;;;12.73;6.90;;;;;;;17.11;81.24;99389.23;4053906;86;21073;-83
2022/07/21 01:26:41;;;;;;;10.58;6.47;;;;;;;16.92;81.56;99387.61;4018164;87;21092;-83
2022/07/21 01:32:46;;;;;;;10.88;5.70;;;;;;;16.88;82.02;99391.77;3979500;87;21135;-83
2022/07/21 01:45:18;;;;;;;8.75;6.35;;;;;;;16.86;82.30;99399.71;4054234;86;22071;-83
2022/07/21 01:51:27;;;;;;;14.43;7.53;;;;;;;16.78;82.77;99398.19;3947520;89;21084;-83
2022/07/21 01:57:28;;;;;;;11.57;7.37;;;;;;;16.64;82.80;99393.35;4057023;86;21062;-83
2022/07/21 02:03:38;;;;;;;11.63;7.10;;;;;;;16.47;82.90;99385.97;3994568;87;21040;-83
2022/07/21 02:09:43;;;;;;;10.72;7.25;;;;;;;16.33;83.25;99381.30;4042260;86;21026;-84
2022/07/21 02:15:49;;;;;;;9.38;5.87;;;;;;;16.34;83.82;99379.30;4023542;87;21155;-83
2022/07/21 02:21:51;;;;;;;10.30;7.05;;;;;;;16.45;84.18;99382.81;4016202;87;21071;-82
2022/07/21 02:27:57;;;;;;;10.95;7.10;;;;;;;16.37;83.79;99379.28;3996144;87;21107;-83
2022/07/21 02:34:11;;;;;;;9.83;5.90;;;;;;;16.22;84.02;99389.44;4018154;87;22182;-83
2022/07/21 02:40:19;;;;;;;8.53;6.60;;;;;;;16.01;84.06;99389.52;3996105;86;21124;-82
2022/07/21 02:46:27;;;;;;;10.98;6.78;;;;;;;15.94;84.60;99383.47;3995918;87;21080;-82
2022/07/21 02:52:33;;;;;;;11.00;5.92;;;;;;;15.80;84.69;99379.38;3999802;87;21627;-83
2022/07/21 02:58:46;;;;;;;9.45;6.00;;;;;;;15.87;85.57;99367.50;4061568;86;21093;-83
2022/07/21 03:04:54;;;;;;;9.70;6.20;;;;;;;15.78;85.13;99375.43;4018120;87;22149;-81
2022/07/21 03:10:57;;;;;;;9.83;6.78;;;;;;;15.71;85.70;99368.57;4058920;86;21076;-82
2022/07/21 03:17:02;;;;;;;11.30;7.03;;;;;;;15.58;85.66;99362.70;4014221;87;21610;-83
2022/07/21 03:23:06;;;;;;;8.93;6.28;;;;;;;15.64;86.23;99358.34;4057133;86;21958;-82
2022/07/21 03:29:12;;;;;;;8.63;6.10;;;;;;;15.73;86.25;99362.03;4018086;87;21015;-82
2022/07/21 03:35:14;;;;;;;12.50;6.65;;;;;;;15.67;86.45;99367.19;4063056;86;21054;-82
2022/07/21 03:41:16;;;;;;;11.33;7.15;;;;;;;15.74;86.66;99365.01;3951965;89;21120;-82
2022/07/21 03:47:18;;;;;;;16.87;6.22;;;;;;;15.71;86.99;99360.29;4060733;85;21080;-83
2022/07/21 03:53:21;;;;;;;12.37;6.62;;;;;;;15.87;87.45;99360.59;3950541;89;21092;-83
2022/07/21 03:59:23;;;;;;;13.65;6.12;;;;;;;15.81;87.29;99362.20;4061216;86;21490;-83
2022/07/21 04:05:27;;;;;;;9.98;6.65;;;;;;;15.86;87.72;99365.94;4058228;86;21156;-83
2022/07/21 04:11:35;;;;;;;14.30;6.92;;;;;;;15.99;88.08;99369.83;3996661;87;21080;-82
2022/07/21 04:17:39;;;;;;;11.78;6.95;;;;;;;16.22;88.17;99375.63;4045208;86;21014;-83
2022/07/21 04:23:55;;;;;;;10.75;7.12;;;;;;;16.38;88.23;99362.12;4011531;87;21026;-83
2022/07/21 04:30:06;;;;;;;10.85;7.10;;;;;;;16.45;88.37;99370.38;4006256;87;22288;-82
2022/07/21 04:36:11;;;;;;;7.80;6.00;;;;;;;16.61;88.45;99372.84;3944216;89;21676;-83
2022/07/21 04:42:12;;;;;;;12.43;7.65;;;;;;;16.82;88.39;99373.26;4035351;87;21062;-80
2022/07/21 04:48:14;;;;;;;14.18;8.65;;;;;;;17.04;88.60;99364.38;3991849;87;21135;-83
2022/07/21 04:54:20;;;;;;;12.63;6.95;;;;;;;17.18;88.41;99364.25;3993332;87;21156;-83
2022/07/21 05:00:29;;;;;;;10.70;6.65;;;;;;;17.35;88.71;99370.03;4012247;87;21095;-83
2022/07/21 05:06:39;;;;;;;10.15;7.67;;;;;;;17.59;88.49;99371.77;4012409;87;21069;-83
2022/07/21 05:12:49;;;;;;;12.05;7.85;;;;;;;17.82;88.64;99371.91;4049025;87;21065;-82
2022/07/21 05:19:01;;;;;;;15.13;8.20;;;;;;;18.06;88.83;99371.59;4049122;86;21069;-83
2022/07/21 05:25:06;;;;;;;13.65;8.13;;;;;;;18.28;88.80;99361.80;3952154;89;21800;-86
2022/07/21 05:31:16;;;;;;;14.35;7.60;;;;;;;18.51;88.60;99365.27;4017648;87;21060;-82
2022/07/21 05:37:32;;;;;;;16.60;7.30;;;;;;;18.82;88.38;99375.67;4010678;87;21087;-81
2022/07/21 05:43:41;;;;;;;13.98;8.28;;;;;;;19.23;88.24;99378.95;4054495;86;21045;-83
2022/07/21 05:49:49;;;;;;;13.55;8.50;;;;;;;19.51;87.95;99390.95;3948380;89;21084;-82
2022/07/21 05:55:53;;;;;;;10.98;7.70;;;;;;;19.74;87.49;99385.34;3947319;89;21113;-83
2022/07/21 06:01:58;;;;;;;17.70;7.80;;;;;;;19.96;86.89;99383.12;4018181;87;21572;-83
2022/07/21 06:08:10;;;;;;;13.85;7.70;;;;;;;20.22;86.85;99385.56;4053921;86;21534;-83
2022/07/21 06:14:12;;;;;;;13.83;8.75;;;;;;;20.43;86.48;99394.84;3949921;89;21116;-83
2022/07/21 06:20:14;;;;;;;12.23;8.43;;;;;;;20.61;85.68;99392.43;4036476;86;21014;-84
2022/07/21 06:26:15;;;;;;;15.80;8.70;;;;;;;20.83;85.61;99384.39;4037055;86;21019;-83
2022/07/21 06:32:17;;;;;;;9.85;7.17;;;;;;;21.09;84.78;99388.94;3946255;89;21573;-83
2022/07/21 06:38:18;;;;;;;17.32;8.95;;;;;;;21.35;84.33;99391.44;4037041;87;21081;-84
2022/07/21 06:44:24;;;;;;;10.15;7.30;;;;;;;21.64;83.07;99401.98;3939881;89;21040;-83
2022/07/21 06:50:33;;;;;;;12.55;8.18;;;;;;;21.90;82.75;99395.14;4041046;88;21057;-83
2022/07/21 06:56:52;;;;;;;12.47;7.58;;;;;;;22.21;82.38;99398.41;3942454;89;21613;-83
2022/07/21 07:02:59;;;;;;;9.98;7.25;;;;;;;22.63;81.56;99399.18;4033057;88;21034;-84
2022/07/21 07:09:00;;;;;;;12.60;7.83;;;;;;;23.22;80.64;99397.84;4006980;89;21052;-84
2022/07/21 07:15:02;;;;;;;12.73;6.85;;;;;;;23.77;80.06;99400.55;4008197;87;20990;-84
2022/07/21 07:21:04;;;;;;;11.53;7.28;;;;;;;24.36;78.83;99396.95;4016170;86;21633;-83
2022/07/21 07:27:05;;;;;;;10.00;6.70;;;;;;;25.40;76.50;99399.40;4020475;87;21057;-85
2022/07/21 07:33:07;;;;;;;12.15;7.53;;;;;;;25.40;76.50;99399.40;4013938;87;21063;-85
2022/07/21 07:39:08;;;;;;;11.33;6.70;;;;;;;25.84;75.03;99402.83;4016061;87;21983;-85
2022/07/21 07:45:19;;;;;;;15.63;6.80;;;;;;;26.29;73.28;99416.07;4016509;89;20992;-86
2022/07/21 07:51:33;;;;;;;11.55;6.60;;;;;;;26.76;71.88;99412.06;4053932;86;21054;-85
2022/07/21 07:57:43;;;;;;;11.75;6.72;;;;;;;27.10;70.49;99415.80;4051259;86;21022;-86
2022/07/21 08:03:53;;;;;;;12.85;5.80;;;;;;;27.46;69.35;99428.27;3989414;89;21030;-85
2022/07/21 08:10:09;;;;;;;14.87;6.30;;;;;;;27.70;67.76;99431.69;4050607;86;21176;-85
2022/07/21 08:16:18;;;;;;;10.70;6.10;;;;;;;27.81;66.49;99435.52;4051321;86;21034;-85
2022/07/21 08:22:25;;;;;;;7.75;5.30;;;;;;;27.86;65.56;99428.45;4037195;87;21010;-85
2022/07/21 08:28:31;;;;;;;9.43;5.75;;;;;;;27.95;64.52;99417.92;4046821;87;21014;-85
2022/07/21 08:34:39;;;;;;;8.48;5.80;;;;;;;28.05;62.95;99424.25;4033431;87;21046;-85
2022/07/21 08:40:46;;;;;;;10.98;4.83;;;;;;;28.20;61.97;99422.22;3943178;90;21598;-84
2022/07/21 08:47:07;;;;;;;9.33;5.40;;;;;;;28.32;61.20;99423.97;3966512;88;21035;-84
2022/07/21 08:53:21;;;;;;;9.20;5.75;;;;;;;28.35;60.17;99405.48;3942746;89;21595;-84
2022/07/21 08:59:26;;;;;;;10.40;5.50;;;;;;;28.38;59.34;99400.29;3987069;87;21152;-84
2022/07/21 09:05:38;;;;;;;7.25;4.80;;;;;;;28.45;59.49;99394.28;4019291;88;21074;-84
2022/07/21 09:11:58;;;;;;;8.63;5.37;;;;;;;28.56;58.48;99391.68;4016533;87;21046;-85
2022/07/21 09:18:15;;;;;;;6.72;5.25;;;;;;;28.55;57.71;99390.11;3944673;89;21593;-85
2022/07/21 09:24:38;;;;;;;9.25;5.37;;;;;;;28.67;56.97;99384.83;4039840;86;21045;-86
2022/07/21 09:31:14;;;;;;;11.68;5.62;;;;;;;28.88;56.13;99382.19;3920894;89;21543;-85
2022/07/21 09:37:33;;;;;;;6.55;5.15;;;;;;;29.22;55.68;99377.06;3947200;89;21699;-85
2022/07/21 09:43:51;;;;;;;8.18;4.08;;;;;;;29.65;54.51;99367.01;4021156;87;21860;-85
2022/07/21 09:50:02;;;;;;;5.95;4.33;;;;;;;30.00;51.75;99364.84;4053735;86;21125;-84
2022/07/21 09:56:28;;;;;;;6.20;4.75;;;;;;;30.55;51.18;99366.02;3924062;89;21122;-85
2022/07/21 10:02:51;;;;;;;11.00;4.37;;;;;;;30.91;50.06;99375.17;4057376;86;21026;-86
2022/07/21 10:09:14;;;;;;;7.37;4.50;;;;;;;31.17;47.76;99367.98;4045833;86;21049;-84
2022/07/21 10:15:20;;;;;;;8.47;4.47;;;;;;;31.47;46.19;99377.69;3944459;89;21055;-86
2022/07/21 10:21:56;;;;;;;8.13;4.65;;;;;;;31.66;46.25;99371.72;3964937;88;21124;-84
2022/07/21 10:28:27;;;;;;;13.22;4.42;;;;;;;32.00;45.99;99362.72;4038606;87;21014;-86
2022/07/21 10:34:38;;;;;;;8.28;4.37;;;;;;;32.14;44.09;99365.30;4036616;87;21984;-85
2022/07/21 10:41:09;;;;;;;4.42;3.80;;;;;;;32.44;44.43;99362.78;4040856;88;21022;-85
2022/07/21 10:47:30;;;;;;;6.78;4.60;;;;;;;32.59;43.35;99366.14;4020300;87;21256;-86
2022/07/21 10:53:46;;;;;;;6.87;4.40;;;;;;;32.79;43.19;99360.98;4034124;86;21405;-86
2022/07/21 11:00:18;;;;;;;4.55;3.95;;;;;;;32.89;42.58;99349.50;4034507;87;21406;-85
2022/07/21 11:06:24;;;;;;;5.87;4.20;;;;;;;32.96;40.48;99334.81;4002775;87;21977;-85
2022/07/21 11:12:54;;;;;;;8.00;4.00;;;;;;;33.44;42.49;99331.56;4037722;87;21041;-87
2022/07/21 11:18:55;;;;;;;6.37;3.90;;;;;;;33.84;42.14;99341.43;4059890;85;21548;-86
2022/07/21 11:25:13;;;;;;;9.65;4.00;;;;;;;34.21;41.46;99336.82;4083692;86;21038;-86
2022/07/21 11:31:24;;;;;;;6.47;3.80;;;;;;;34.47;41.33;99336.39;4148291;86;21044;-87
2022/07/21 11:37:58;;;;;;;8.03;3.52;;;;;;;34.70;40.65;99330.62;4009274;87;21135;-86
2022/07/21 11:50:25;;;;;;;5.55;3.27;;;;;;;34.75;33.61;99338.33;4033874;87;21511;-86
2022/07/21 11:56:27;;;;;;;3.83;3.10;;;;;;;34.61;35.16;99328.13;3939367;89;21629;-85
2022/07/21 12:02:34;;;;;;;5.62;3.42;;;;;;;34.42;36.11;99323.77;4028820;87;21041;-86
2022/07/21 12:09:02;;;;;;;6.08;3.05;;;;;;;34.43;36.56;99316.78;3935597;89;21080;-87
2022/07/21 12:15:31;;;;;;;3.65;2.98;;;;;;;34.13;35.85;99309.49;4012619;88;21078;-84
2022/07/21 12:21:50;;;;;;;4.50;3.30;;;;;;;33.62;35.48;99314.59;4043597;86;21195;-84
2022/07/21 12:28:15;;;;;;;4.28;2.85;;;;;;;33.29;35.67;99302.09;3953930;87;21104;-85
2022/07/21 12:40:46;;;;;;;6.90;3.55;;;;;;;32.51;36.95;99293.64;3951015;89;20108;-85
2022/07/21 12:46:50;;;;;;;4.45;3.25;;;;;;;32.20;36.88;99293.86;3950542;89;21068;-85
2022/07/21 12:52:54;;;;;;;3.40;3.10;;;;;;;32.20;37.15;99299.52;3997640;87;21052;-85
2022/07/21 12:59:14;;;;;;;4.63;3.63;;;;;;;31.93;37.15;99286.89;4058961;86;21002;-84
2022/07/21 13:05:36;;;;;;;5.50;3.62;;;;;;;31.77;36.42;99281.97;3948185;89;21053;-84
2022/07/21 13:11:51;;;;;;;6.17;3.70;;;;;;;31.56;37.77;99279.21;4012785;87;21071;-85
2022/07/21 13:18:01;;;;;;;6.70;3.52;;;;;;;31.53;38.34;99264.67;3943142;89;21159;-85
2022/07/21 13:24:11;;;;;;;7.47;3.33;;;;;;;31.32;38.56;99259.73;3891933;90;21631;-85
2022/07/21 13:30:31;;;;;;;7.08;3.47;;;;;;;31.35;38.71;99258.71;3945016;89;21058;-85
2022/07/21 13:36:43;;;;;;;5.67;3.52;;;;;;;31.18;39.02;99255.03;3928773;89;21039;-84
2022/07/21 13:42:56;;;;;;;6.12;3.72;;;;;;;31.06;38.90;99257.03;3953690;89;21043;-84
2022/07/21 13:49:03;;;;;;;3.87;3.15;;;;;;;30.96;38.61;99253.52;3942771;89;21595;-85
2022/07/21 13:55:19;;;;;;;5.45;3.22;;;;;;;30.85;39.05;99249.23;3951119;89;21060;-85
2022/07/21 14:01:30;;;;;;;6.87;2.90;;;;;;;30.82;39.29;99244.59;3949474;89;21013;-85
2022/07/21 14:07:41;;;;;;;7.08;3.45;;;;;;;30.73;39.34;99230.64;3950677;89;21100;-84
2022/07/21 14:13:50;;;;;;;5.80;3.00;;;;;;;30.69;39.20;99231.51;3951772;89;21062;-85
2022/07/21 14:19:55;;;;;;;8.65;3.55;;;;;;;30.75;38.93;99233.09;3945394;87;21140;-84
2022/07/21 14:26:09;;;;;;;4.50;2.90;;;;;;;30.67;38.96;99229.81;3912319;89;21130;-85
2022/07/21 14:32:24;;;;;;;5.92;3.55;;;;;;;30.62;38.87;99217.21;3938032;89;21051;-85
2022/07/21 14:38:28;;;;;;;7.62;2.90;;;;;;;30.58;39.03;99216.69;3939097;89;21054;-85
2022/07/21 14:44:39;;;;;;;6.05;3.17;;;;;;;30.60;39.31;99212.73;3915903;89;21150;-85
2022/07/21 14:50:42;;;;;;;6.85;3.50;;;;;;;30.50;39.32;99206.51;4013938;88;22009;-86
2022/07/21 14:56:45;;;;;;;5.15;3.10;;;;;;;30.47;38.90;99201.09;4061197;86;21026;-86
2022/07/21 15:02:53;;;;;;;7.17;2.85;;;;;;;30.48;39.51;99200.58;3943880;89;21051;-85
2022/07/21 15:09:04;;;;;;;4.72;3.45;;;;;;;30.45;39.79;99189.52;4015358;87;21088;-85
2022/07/21 15:15:15;;;;;;;7.65;2.90;;;;;;;30.37;40.01;99188.44;4018215;89;21528;-85
2022/07/21 15:21:28;;;;;;;4.03;3.08;;;;;;;30.30;40.21;99177.63;4030332;86;21653;-85
2022/07/21 15:27:41;;;;;;;5.75;3.25;;;;;;;30.21;40.66;99172.19;3949415;89;21136;-84
2022/07/21 15:33:49;;;;;;;5.12;3.22;;;;;;;30.15;40.57;99174.92;4014630;87;21071;-85
2022/07/21 15:39:53;;;;;;;5.30;2.92;;;;;;;30.14;40.15;99169.78;4058143;86;21029;-84
2022/07/21 15:45:58;;;;;;;7.75;3.30;;;;;;;30.05;40.38;99166.53;3951187;89;21132;-85
2022/07/21 15:52:06;;;;;;;6.15;2.87;;;;;;;29.99;40.60;99160.70;4054385;86;21098;-86
2022/07/21 15:58:15;;;;;;;6.28;3.30;;;;;;;29.88;40.78;99152.91;3949831;89;21592;-84
2022/07/21 16:04:17;;;;;;;6.30;3.08;;;;;;;29.87;40.22;99159.06;4058856;86;20986;-85
2022/07/21 16:10:25;;;;;;;4.50;3.02;;;;;;;29.75;40.30;99154.61;4015936;87;21104;-84
2022/07/21 16:16:29;;;;;;;5.40;3.35;;;;;;;29.66;40.13;99154.14;4052181;88;21544;-84
2022/07/21 16:22:32;;;;;;;3.98;2.75;;;;;;;29.55;40.42;99151.23;3951229;89;21102;-85
2022/07/21 16:28:36;;;;;;;5.37;3.05;;;;;;;29.42;40.73;99157.89;4054026;86;21078;-86
2022/07/21 16:34:38;;;;;;;5.50;2.90;;;;;;;29.31;40.75;99153.55;3949220;89;21029;-85
2022/07/21 16:40:44;;;;;;;7.95;2.40;;;;;;;29.22;40.88;99152.32;4058091;86;21649;-84
2022/07/21 16:46:55;;;;;;;;;;;;;;;29.13;41.51;99155.94;4059260;86;22022;-84
2022/07/21 16:53:02;;;;;;;13.93;3.02;;;;;;;28.97;42.17;99153.80;4053738;86;20179;-85
2022/07/21 16:59:04;;;;;;;4.72;2.30;;;;;;;28.82;42.20;99150.31;4058515;86;21038;-85
2022/07/21 17:05:14;;;;;;;6.35;3.58;;;;;;;28.66;42.61;99141.67;4081299;86;21013;-84
2022/07/21 17:11:19;;;;;;;4.75;2.80;;;;;;;28.52;42.95;99132.66;4079556;86;21057;-84
2022/07/21 17:17:24;;;;;;;5.33;2.50;;;;;;;28.37;43.25;99125.66;4074793;86;21616;-85
2022/07/21 17:23:28;;;;;;;4.50;2.58;;;;;;;28.25;43.53;99128.19;4079793;86;21180;-83
2022/07/21 17:29:36;;;;;;;4.65;2.62;;;;;;;28.11;44.03;99127.58;4077133;86;21072;-85
2022/07/21 17:35:51;;;;;;;4.10;2.65;;;;;;;27.96;44.56;99131.08;4084436;86;22075;-85
2022/07/21 17:42:01;;;;;;;6.00;2.47;;;;;;;27.78;44.94;99125.67;4076470;86;21144;-85
2022/07/21 17:48:11;;;;;;;8.58;2.67;;;;;;;27.57;45.41;99126.84;4078609;86;21052;-85
2022/07/21 17:54:13;;;;;;;7.05;3.30;;;;;;;27.31;45.46;99116.06;4081263;84;21089;-85
2022/07/21 18:00:20;;;;;;;12.40;3.85;;;;;;;27.10;45.69;99105.94;4058315;85;21121;-85
2022/07/21 18:06:24;;;;;;;14.07;3.40;;;;;;;26.89;46.12;99110.66;3946972;89;21655;-85
2022/07/21 18:12:37;;;;;;;7.35;2.90;;;;;;;26.69;46.46;99107.72;4011831;87;21030;-83
2022/07/21 18:18:42;;;;;;;6.90;3.10;;;;;;;26.49;46.74;99099.75;3949930;89;21119;-84
2022/07/21 18:24:52;;;;;;;7.67;2.75;;;;;;;26.34;46.98;99108.14;4054566;86;21236;-84
2022/07/21 18:30:55;;;;;;;9.60;2.95;;;;;;;26.06;47.48;99103.92;4054020;86;21503;-84
2022/07/21 18:37:01;;;;;;;6.65;2.80;;;;;;;25.94;47.37;99100.09;4033410;86;21113;-83
2022/07/21 18:43:16;;;;;;;9.65;2.98;;;;;;;25.94;47.37;99100.09;4031903;86;21654;-85
2022/07/21 18:49:24;;;;;;;6.17;2.87;;;;;;;25.61;47.44;99077.50;4056391;88;21481;-84
2022/07/21 18:55:31;;;;;;;7.90;3.20;;;;;;;25.57;47.68;99100.73;4029118;86;21129;-85
2022/07/21 19:01:36;;;;;;;7.28;2.85;;;;;;;25.19;48.39;99106.89;4030875;85;21095;-85
2022/07/21 19:07:40;;;;;;;7.23;2.93;;;;;;;25.19;48.39;99106.89;4052917;86;22034;-85
2022/07/21 19:13:46;;;;;;;8.25;2.77;;;;;;;25.05;48.63;99117.34;4060622;86;21053;-86
2022/07/21 19:19:55;;;;;;;4.67;3.08;;;;;;;24.87;49.04;99111.75;4056645;86;21110;-84
2022/07/21 19:26:02;;;;;;;5.30;2.72;;;;;;;24.72;49.38;99119.23;4059594;86;21014;-84
2022/07/21 19:32:11;;;;;;;5.55;2.50;;;;;;;24.63;50.84;99119.21;4053328;88;21048;-84
2022/07/21 19:38:33;;;;;;;6.12;2.50;;;;;;;24.50;51.83;99121.38;4056898;86;21486;-84
2022/07/21 19:44:42;;;;;;;5.67;2.90;;;;;;;24.22;52.14;99118.38;3991926;87;21060;-84
2022/07/21 19:50:45;;;;;;;9.18;3.45;;;;;;;23.82;52.20;99121.19;4014412;87;21959;-84
2022/07/21 19:56:50;;;;;;;7.12;3.75;;;;;;;23.42;53.01;99119.01;4055828;86;21081;-83
2022/07/21 20:02:51;;;;;;;19.32;5.47;;;;;;;23.09;53.40;99118.64;3950450;89;22336;-84
2022/07/21 20:08:58;;;;;;;9.08;4.03;;;;;;;22.84;53.85;99114.59;4015226;87;21124;-84
2022/07/21 20:15:18;;;;;;;8.20;4.28;;;;;;;22.60;54.63;99116.86;4036369;86;21105;-84
2022/07/21 20:21:23;;;;;;;10.53;4.72;;;;;;;22.37;55.15;99119.43;4013941;87;21141;-84
2022/07/21 20:27:27;;;;;;;13.08;6.45;;;;;;;22.19;56.18;99119.23;4079116;86;21064;-84
2022/07/21 20:33:29;;;;;;;10.45;7.55;;;;;;;22.02;56.55;99120.61;4093348;86;21700;-83
2022/07/21 20:39:36;;;;;;;17.73;8.73;;;;;;;21.89;57.04;99125.44;4083722;86;21029;-83
2022/07/21 20:45:38;;;;;;;15.70;8.50;;;;;;;21.78;57.55;99125.61;4080947;86;21017;-83
2022/07/21 20:51:41;;;;;;;17.52;7.15;;;;;;;21.59;58.01;99123.19;4079776;86;21557;-83
2022/07/21 20:57:44;;;;;;;12.55;6.53;;;;;;;21.34;59.15;99126.74;4055974;86;21106;-84
2022/07/21 21:03:52;;;;;;;9.90;5.30;;;;;;;21.06;60.09;99115.66;4081259;86;21068;-84
2022/07/21 21:09:56;;;;;;;9.35;5.25;;;;;;;20.82;60.89;99122.07;4081763;86;21073;-83
2022/07/21 21:16:01;;;;;;;10.13;5.12;;;;;;;20.66;61.80;99115.76;4082958;86;21009;-83
2022/07/21 21:22:10;;;;;;;10.55;5.53;;;;;;;20.72;62.02;99120.98;4071477;86;21650;-83
2022/07/21 21:28:12;;;;;;;9.55;4.85;;;;;;;20.69;61.77;99117.06;4036246;87;21066;-82
2022/07/21 21:34:19;;;;;;;11.40;5.10;;;;;;;20.59;62.22;99107.63;4038441;86;21090;-82
2022/07/21 21:40:31;;;;;;;8.40;4.85;;;;;;;20.57;62.60;99105.28;3936657;88;21235;-83
2022/07/21 21:46:41;;;;;;;10.68;4.33;;;;;;;20.67;63.01;99109.76;3990024;87;21075;-83
2022/07/21 21:52:44;;;;;;;7.17;4.15;;;;;;;20.66;63.15;99113.77;4007721;87;21046;-83
2022/07/21 21:58:48;;;;;;;7.12;4.03;;;;;;;20.64;62.92;99107.09;4037455;87;21109;-83
2022/07/21 22:04:56;;;;;;;9.38;4.12;;;;;;;20.48;63.55;99106.53;3936315;89;21164;-84
2022/07/21 22:11:06;;;;;;;8.60;4.87;;;;;;;20.42;64.71;99106.90;4037936;87;21050;-82
2022/07/21 22:17:13;;;;;;;5.85;3.80;;;;;;;20.47;65.55;99112.53;3944190;89;21417;-83
2022/07/21 22:29:40;;;;;;;11.05;4.90;;;;;;;20.25;66.07;99112.92;4081282;86;21668;-83
2022/07/21 22:35:46;;;;;;;7.17;4.33;;;;;;;20.01;66.81;99111.67;4060206;86;21081;-83
2022/07/21 22:41:55;;;;;;;8.48;4.25;;;;;;;19.87;67.07;99115.42;4079952;86;21069;-83
2022/07/21 22:48:02;;;;;;;8.50;4.42;;;;;;;19.77;67.77;99117.84;4079011;86;21613;-83
2022/07/21 22:54:10;;;;;;;9.20;5.05;;;;;;;19.58;68.15;99110.35;4079596;86;21043;-84
2022/07/21 23:00:13;;;;;;;8.85;4.67;;;;;;;19.35;68.47;99111.88;4057595;86;21132;-84
2022/07/21 23:06:17;;;;;;;11.53;4.53;;;;;;;19.26;68.79;99118.60;4058555;86;21001;-83
2022/07/21 23:12:25;;;;;;;11.12;4.97;;;;;;;18.98;69.22;99119.97;4079203;86;21058;-83
2022/07/21 23:18:27;;;;;;;8.98;4.65;;;;;;;18.81;70.09;99117.58;4082092;86;21017;-83
2022/07/21 23:24:30;;;;;;;8.88;5.03;;;;;;;18.73;70.63;99113.38;4067572;86;21085;-82
2022/07/21 23:30:32;;;;;;;11.28;4.80;;;;;;;18.74;70.87;99110.17;3950855;89;21116;-83
2022/07/21 23:36:39;;;;;;;6.72;4.28;;;;;;;18.49;70.84;99101.55;3951111;89;21140;-83
2022/07/21 23:42:43;;;;;;;7.85;4.35;;;;;;;18.21;71.75;99100.03;3955558;87;21112;-83
2022/07/21 23:48:48;;;;;;;8.30;4.67;;;;;;;18.17;72.40;99097.95;3951752;89;21102;-83
2022/07/21 23:54:55;;;;;;;7.10;4.80;;;;;;;18.16;72.87;99090.06;4015248;87;21099;-83
